sensor_id;sensor_type;location;lat;lon;timestamp;temperature;humidity
2100;DHT22;1055;48.854;9.302;2022-08-03T00:01:26;20.60;99.90
2100;DHT22;1055;48.854;9.302;2022-08-03T00:03:51;20.70;99.90
2100;DHT22;1055;48.854;9.302;2022-08-03T00:06:17;20.90;99.90
2100;DHT22;1055;48.854;9.302;2022-08-03T00:08:43;20.80;99.90
2100;DHT22;1055;48.854;9.302;2022-08-03T00:11:08;20.90;99.90
2100;DHT22;1055;48.854;9.302;2022-08-03T00:13:34;20.90;99.90
2100;DHT22;1055;48.854;9.302;2022-08-03T00:16:00;20.60;99.90
2100;DHT22;1055;48.854;9.302;2022-08-03T00:18:25;20.50;99.90
2100;DHT22;1055;48.854;9.302;2022-08-03T00:20:52;20.60;99.90
2100;DHT22;1055;48.854;9.302;2022-08-03T00:23:17;20.80;99.90
2100;DHT22;1055;48.854;9.302;2022-08-03T00:25:43;20.80;99.90
2100;DHT22;1055;48.854;9.302;2022-08-03T00:28:09;20.90;99.90
2100;DHT22;1055;48.854;9.302;2022-08-03T00:30:35;20.90;99.90
2100;DHT22;1055;48.854;9.302;2022-08-03T00:33:01;20.90;99.90
2100;DHT22;1055;48.854;9.302;2022-08-03T00:35:27;20.90;99.90
2100;DHT22;1055;48.854;9.302;2022-08-03T00:37:53;21.00;99.90
2100;DHT22;1055;48.854;9.302;2022-08-03T00:40:19;21.00;99.90
2100;DHT22;1055;48.854;9.302;2022-08-03T00:42:53;21.10;99.90
2100;DHT22;1055;48.854;9.302;2022-08-03T00:45:20;21.00;99.90
2100;DHT22;1055;48.854;9.302;2022-08-03T00:47:46;21.10;99.90
2100;DHT22;1055;48.854;9.302;2022-08-03T00:50:13;21.10;99.90
2100;DHT22;1055;48.854;9.302;2022-08-03T00:52:39;21.10;99.90
2100;DHT22;1055;48.854;9.302;2022-08-03T00:55:05;21.20;99.90
2100;DHT22;1055;48.854;9.302;2022-08-03T00:57:31;21.00;99.90
2100;DHT22;1055;48.854;9.302;2022-08-03T00:59:58;20.90;99.90
2100;DHT22;1055;48.854;9.302;2022-08-03T01:02:28;20.90;99.90
2100;DHT22;1055;48.854;9.302;2022-08-03T01:04:54;20.80;99.90
2100;DHT22;1055;48.854;9.302;2022-08-03T01:10:36;20.20;99.90
2100;DHT22;1055;48.854;9.302;2022-08-03T01:18:46;19.80;99.90
2100;DHT22;1055;48.854;9.302;2022-08-03T01:21:20;19.70;99.90
2100;DHT22;1055;48.854;9.302;2022-08-03T01:27:02;20.00;99.90
2100;DHT22;1055;48.854;9.302;2022-08-03T01:29:40;20.10;99.90
2100;DHT22;1055;48.854;9.302;2022-08-03T01:32:12;20.00;99.90
2100;DHT22;1055;48.854;9.302;2022-08-03T01:34:46;19.70;99.90
2100;DHT22;1055;48.854;9.302;2022-08-03T01:37:15;19.90;99.90
2100;DHT22;1055;48.854;9.302;2022-08-03T01:39:43;20.10;99.90
2100;DHT22;1055;48.854;9.302;2022-08-03T01:42:10;20.20;99.90
2100;DHT22;1055;48.854;9.302;2022-08-03T01:44:40;20.20;99.90
2100;DHT22;1055;48.854;9.302;2022-08-03T01:47:07;20.30;99.90
2100;DHT22;1055;48.854;9.302;2022-08-03T01:49:38;20.20;99.90
2100;DHT22;1055;48.854;9.302;2022-08-03T01:52:05;20.30;99.90
2100;DHT22;1055;48.854;9.302;2022-08-03T01:54:36;20.40;99.90
2100;DHT22;1055;48.854;9.302;2022-08-03T01:57:05;20.40;99.90
2100;DHT22;1055;48.854;9.302;2022-08-03T01:59:33;20.40;99.90
2100;DHT22;1055;48.854;9.302;2022-08-03T02:02:00;20.30;99.90
2100;DHT22;1055;48.854;9.302;2022-08-03T02:04:28;20.40;99.90
2100;DHT22;1055;48.854;9.302;2022-08-03T02:06:54;20.40;99.90
2100;DHT22;1055;48.854;9.302;2022-08-03T02:09:22;20.40;99.90
2100;DHT22;1055;48.854;9.302;2022-08-03T02:11:49;20.30;99.90
2100;DHT22;1055;48.854;9.302;2022-08-03T02:14:16;19.90;99.90
2100;DHT22;1055;48.854;9.302;2022-08-03T02:16:43;19.20;99.90
2100;DHT22;1055;48.854;9.302;2022-08-03T02:19:11;19.20;99.90
2100;DHT22;1055;48.854;9.302;2022-08-03T02:21:37;19.10;99.90
2100;DHT22;1055;48.854;9.302;2022-08-03T02:24:04;18.90;99.90
2100;DHT22;1055;48.854;9.302;2022-08-03T02:26:31;18.80;99.90
2100;DHT22;1055;48.854;9.302;2022-08-03T02:29:01;18.50;99.90
2100;DHT22;1055;48.854;9.302;2022-08-03T02:31:31;18.50;99.90
2100;DHT22;1055;48.854;9.302;2022-08-03T02:34:00;18.40;99.90
2100;DHT22;1055;48.854;9.302;2022-08-03T02:36:34;18.50;99.90
2100;DHT22;1055;48.854;9.302;2022-08-03T02:39:01;18.70;99.90
2100;DHT22;1055;48.854;9.302;2022-08-03T02:41:40;19.00;99.90
2100;DHT22;1055;48.854;9.302;2022-08-03T02:44:08;18.90;99.90
2100;DHT22;1055;48.854;9.302;2022-08-03T02:46:40;19.00;99.90
2100;DHT22;1055;48.854;9.302;2022-08-03T02:49:07;18.80;99.90
2100;DHT22;1055;48.854;9.302;2022-08-03T02:51:35;18.80;99.90
2100;DHT22;1055;48.854;9.302;2022-08-03T02:54:02;18.60;99.90
2100;DHT22;1055;48.854;9.302;2022-08-03T02:56:29;18.40;99.90
2100;DHT22;1055;48.854;9.302;2022-08-03T02:58:56;18.10;99.90
2100;DHT22;1055;48.854;9.302;2022-08-03T03:01:24;18.10;99.90
2100;DHT22;1055;48.854;9.302;2022-08-03T03:03:53;18.40;99.90
2100;DHT22;1055;48.854;9.302;2022-08-03T03:06:20;18.50;99.90
2100;DHT22;1055;48.854;9.302;2022-08-03T03:08:47;18.40;99.90
2100;DHT22;1055;48.854;9.302;2022-08-03T03:11:14;18.30;99.90
2100;DHT22;1055;48.854;9.302;2022-08-03T03:13:42;18.60;99.90
2100;DHT22;1055;48.854;9.302;2022-08-03T03:16:09;18.60;99.90
2100;DHT22;1055;48.854;9.302;2022-08-03T03:18:37;18.30;99.90
2100;DHT22;1055;48.854;9.302;2022-08-03T03:21:04;18.10;99.90
2100;DHT22;1055;48.854;9.302;2022-08-03T03:23:37;18.00;99.90
2100;DHT22;1055;48.854;9.302;2022-08-03T03:26:04;17.80;99.90
2100;DHT22;1055;48.854;9.302;2022-08-03T03:28:31;17.60;99.90
2100;DHT22;1055;48.854;9.302;2022-08-03T03:30:57;17.60;99.90
2100;DHT22;1055;48.854;9.302;2022-08-03T03:33:23;17.50;99.90
2100;DHT22;1055;48.854;9.302;2022-08-03T03:35:50;17.70;99.90
2100;DHT22;1055;48.854;9.302;2022-08-03T03:38:16;17.90;99.90
2100;DHT22;1055;48.854;9.302;2022-08-03T03:40:42;17.90;99.90
2100;DHT22;1055;48.854;9.302;2022-08-03T03:43:10;17.80;99.90
2100;DHT22;1055;48.854;9.302;2022-08-03T03:45:36;17.80;99.90
2100;DHT22;1055;48.854;9.302;2022-08-03T03:48:06;17.80;99.90
2100;DHT22;1055;48.854;9.302;2022-08-03T03:50:33;18.00;99.90
2100;DHT22;1055;48.854;9.302;2022-08-03T03:53:00;18.00;99.90
2100;DHT22;1055;48.854;9.302;2022-08-03T03:55:26;18.20;99.90
2100;DHT22;1055;48.854;9.302;2022-08-03T03:57:51;18.30;99.90
2100;DHT22;1055;48.854;9.302;2022-08-03T04:00:18;18.30;99.90
2100;DHT22;1055;48.854;9.302;2022-08-03T04:02:45;18.10;99.90
2100;DHT22;1055;48.854;9.302;2022-08-03T04:05:11;18.30;99.90
2100;DHT22;1055;48.854;9.302;2022-08-03T04:08:05;18.10;99.90
2100;DHT22;1055;48.854;9.302;2022-08-03T04:11:14;18.10;99.90
2100;DHT22;1055;48.854;9.302;2022-08-03T04:13:54;18.20;99.90
2100;DHT22;1055;48.854;9.302;2022-08-03T04:16:24;17.90;99.90
2100;DHT22;1055;48.854;9.302;2022-08-03T04:18:56;17.70;99.90
2100;DHT22;1055;48.854;9.302;2022-08-03T04:21:24;17.60;99.90
2100;DHT22;1055;48.854;9.302;2022-08-03T04:23:52;17.80;99.90
2100;DHT22;1055;48.854;9.302;2022-08-03T04:26:21;17.70;99.90
2100;DHT22;1055;48.854;9.302;2022-08-03T04:28:49;17.80;99.90
2100;DHT22;1055;48.854;9.302;2022-08-03T04:31:17;17.90;99.90
2100;DHT22;1055;48.854;9.302;2022-08-03T04:33:45;18.20;99.90
2100;DHT22;1055;48.854;9.302;2022-08-03T04:36:15;18.50;99.90
2100;DHT22;1055;48.854;9.302;2022-08-03T04:41:26;19.00;99.90
2100;DHT22;1055;48.854;9.302;2022-08-03T04:43:55;19.30;99.90
2100;DHT22;1055;48.854;9.302;2022-08-03T04:46:23;19.60;99.90
2100;DHT22;1055;48.854;9.302;2022-08-03T04:48:50;19.70;99.90
2100;DHT22;1055;48.854;9.302;2022-08-03T04:51:16;20.00;99.90
2100;DHT22;1055;48.854;9.302;2022-08-03T04:53:43;20.00;99.90
2100;DHT22;1055;48.854;9.302;2022-08-03T04:56:09;20.20;99.90
2100;DHT22;1055;48.854;9.302;2022-08-03T04:58:35;20.00;99.90
2100;DHT22;1055;48.854;9.302;2022-08-03T05:01:00;19.40;99.90
2100;DHT22;1055;48.854;9.302;2022-08-03T05:03:26;19.20;99.90
2100;DHT22;1055;48.854;9.302;2022-08-03T05:05:52;19.20;99.90
2100;DHT22;1055;48.854;9.302;2022-08-03T05:08:18;18.90;99.90
2100;DHT22;1055;48.854;9.302;2022-08-03T05:10:45;18.70;99.90
2100;DHT22;1055;48.854;9.302;2022-08-03T05:13:11;18.90;99.90
2100;DHT22;1055;48.854;9.302;2022-08-03T05:15:38;18.90;99.90
2100;DHT22;1055;48.854;9.302;2022-08-03T05:18:04;18.70;99.90
2100;DHT22;1055;48.854;9.302;2022-08-03T05:20:30;18.70;99.90
2100;DHT22;1055;48.854;9.302;2022-08-03T05:22:56;18.80;99.90
2100;DHT22;1055;48.854;9.302;2022-08-03T05:25:22;18.70;99.90
2100;DHT22;1055;48.854;9.302;2022-08-03T05:27:48;18.80;99.90
2100;DHT22;1055;48.854;9.302;2022-08-03T05:30:14;18.60;99.90
2100;DHT22;1055;48.854;9.302;2022-08-03T05:32:40;18.80;99.90
2100;DHT22;1055;48.854;9.302;2022-08-03T05:35:06;19.00;99.90
2100;DHT22;1055;48.854;9.302;2022-08-03T05:37:32;19.10;99.90
2100;DHT22;1055;48.854;9.302;2022-08-03T05:39:57;19.30;99.90
2100;DHT22;1055;48.854;9.302;2022-08-03T05:42:23;19.50;99.90
2100;DHT22;1055;48.854;9.302;2022-08-03T05:44:49;19.50;99.90
2100;DHT22;1055;48.854;9.302;2022-08-03T05:47:15;19.60;99.90
2100;DHT22;1055;48.854;9.302;2022-08-03T05:49:40;19.60;99.90
2100;DHT22;1055;48.854;9.302;2022-08-03T05:52:06;19.80;99.90
2100;DHT22;1055;48.854;9.302;2022-08-03T05:54:32;20.00;99.90
2100;DHT22;1055;48.854;9.302;2022-08-03T05:56:57;20.30;99.90
2100;DHT22;1055;48.854;9.302;2022-08-03T05:59:23;20.50;99.90
2100;DHT22;1055;48.854;9.302;2022-08-03T06:01:50;20.40;99.90
2100;DHT22;1055;48.854;9.302;2022-08-03T06:04:16;20.30;99.90
2100;DHT22;1055;48.854;9.302;2022-08-03T06:06:42;20.50;99.90
2100;DHT22;1055;48.854;9.302;2022-08-03T06:09:08;20.50;99.90
2100;DHT22;1055;48.854;9.302;2022-08-03T06:11:38;20.80;99.90
2100;DHT22;1055;48.854;9.302;2022-08-03T06:14:04;20.70;99.90
2100;DHT22;1055;48.854;9.302;2022-08-03T06:16:30;20.70;99.90
2100;DHT22;1055;48.854;9.302;2022-08-03T06:18:56;20.70;99.90
2100;DHT22;1055;48.854;9.302;2022-08-03T06:21:21;20.80;99.90
2100;DHT22;1055;48.854;9.302;2022-08-03T06:23:47;20.60;99.90
2100;DHT22;1055;48.854;9.302;2022-08-03T06:26:13;20.60;99.90
2100;DHT22;1055;48.854;9.302;2022-08-03T06:28:39;20.70;99.90
2100;DHT22;1055;48.854;9.302;2022-08-03T06:31:04;20.80;99.90
2100;DHT22;1055;48.854;9.302;2022-08-03T06:33:30;21.00;99.90
2100;DHT22;1055;48.854;9.302;2022-08-03T06:35:56;21.00;99.90
2100;DHT22;1055;48.854;9.302;2022-08-03T06:38:22;21.10;99.90
2100;DHT22;1055;48.854;9.302;2022-08-03T06:40:48;21.20;99.90
2100;DHT22;1055;48.854;9.302;2022-08-03T06:43:14;21.20;99.90
2100;DHT22;1055;48.854;9.302;2022-08-03T06:45:41;21.30;99.90
2100;DHT22;1055;48.854;9.302;2022-08-03T06:48:08;21.40;99.90
2100;DHT22;1055;48.854;9.302;2022-08-03T06:50:36;21.50;99.90
2100;DHT22;1055;48.854;9.302;2022-08-03T06:53:02;21.60;99.90
2100;DHT22;1055;48.854;9.302;2022-08-03T06:55:28;21.70;99.90
2100;DHT22;1055;48.854;9.302;2022-08-03T06:57:54;21.90;99.90
2100;DHT22;1055;48.854;9.302;2022-08-03T07:00:21;22.00;99.90
2100;DHT22;1055;48.854;9.302;2022-08-03T07:02:47;22.10;99.90
2100;DHT22;1055;48.854;9.302;2022-08-03T07:05:13;22.30;99.90
2100;DHT22;1055;48.854;9.302;2022-08-03T07:07:39;22.50;99.90
2100;DHT22;1055;48.854;9.302;2022-08-03T07:10:05;22.50;99.90
2100;DHT22;1055;48.854;9.302;2022-08-03T07:12:32;22.50;99.90
2100;DHT22;1055;48.854;9.302;2022-08-03T07:14:59;22.70;99.90
2100;DHT22;1055;48.854;9.302;2022-08-03T07:17:27;22.80;99.90
2100;DHT22;1055;48.854;9.302;2022-08-03T07:19:52;23.00;99.90
2100;DHT22;1055;48.854;9.302;2022-08-03T07:22:18;23.10;99.90
2100;DHT22;1055;48.854;9.302;2022-08-03T07:24:44;23.20;99.90
2100;DHT22;1055;48.854;9.302;2022-08-03T07:27:10;23.30;99.90
2100;DHT22;1055;48.854;9.302;2022-08-03T07:29:35;23.50;99.90
2100;DHT22;1055;48.854;9.302;2022-08-03T07:32:04;23.70;99.90
2100;DHT22;1055;48.854;9.302;2022-08-03T07:34:30;23.80;99.90
2100;DHT22;1055;48.854;9.302;2022-08-03T07:36:56;23.90;99.90
2100;DHT22;1055;48.854;9.302;2022-08-03T07:39:22;24.00;99.90
2100;DHT22;1055;48.854;9.302;2022-08-03T07:41:48;24.20;99.90
2100;DHT22;1055;48.854;9.302;2022-08-03T07:44:16;24.30;99.90
2100;DHT22;1055;48.854;9.302;2022-08-03T07:46:42;24.40;99.90
2100;DHT22;1055;48.854;9.302;2022-08-03T07:49:07;24.50;99.90
2100;DHT22;1055;48.854;9.302;2022-08-03T07:51:33;24.60;99.90
2100;DHT22;1055;48.854;9.302;2022-08-03T07:53:59;24.50;99.90
2100;DHT22;1055;48.854;9.302;2022-08-03T07:56:25;24.60;99.90
2100;DHT22;1055;48.854;9.302;2022-08-03T07:58:51;24.80;99.90
2100;DHT22;1055;48.854;9.302;2022-08-03T08:01:17;25.00;99.90
2100;DHT22;1055;48.854;9.302;2022-08-03T08:03:44;25.20;99.90
2100;DHT22;1055;48.854;9.302;2022-08-03T08:06:10;25.30;99.90
2100;DHT22;1055;48.854;9.302;2022-08-03T08:08:37;25.40;99.90
2100;DHT22;1055;48.854;9.302;2022-08-03T08:11:03;25.50;99.90
2100;DHT22;1055;48.854;9.302;2022-08-03T08:13:28;25.70;99.90
2100;DHT22;1055;48.854;9.302;2022-08-03T08:15:54;25.70;99.90
2100;DHT22;1055;48.854;9.302;2022-08-03T08:18:20;25.80;99.90
2100;DHT22;1055;48.854;9.302;2022-08-03T08:20:46;25.80;99.90
2100;DHT22;1055;48.854;9.302;2022-08-03T08:23:12;26.00;99.90
2100;DHT22;1055;48.854;9.302;2022-08-03T08:25:37;26.10;99.90
2100;DHT22;1055;48.854;9.302;2022-08-03T08:28:03;26.20;99.90
2100;DHT22;1055;48.854;9.302;2022-08-03T08:30:31;26.30;99.90
2100;DHT22;1055;48.854;9.302;2022-08-03T08:32:57;26.40;99.90
2100;DHT22;1055;48.854;9.302;2022-08-03T08:35:23;26.50;99.90
2100;DHT22;1055;48.854;9.302;2022-08-03T08:37:48;26.50;99.90
2100;DHT22;1055;48.854;9.302;2022-08-03T08:40:14;26.70;99.90
2100;DHT22;1055;48.854;9.302;2022-08-03T08:42:41;26.90;99.90
2100;DHT22;1055;48.854;9.302;2022-08-03T08:45:08;26.90;99.90
2100;DHT22;1055;48.854;9.302;2022-08-03T08:47:37;27.00;99.90
2100;DHT22;1055;48.854;9.302;2022-08-03T08:50:04;27.10;99.90
2100;DHT22;1055;48.854;9.302;2022-08-03T08:52:31;27.20;99.90
2100;DHT22;1055;48.854;9.302;2022-08-03T08:54:59;27.40;99.90
2100;DHT22;1055;48.854;9.302;2022-08-03T08:57:28;27.40;99.90
2100;DHT22;1055;48.854;9.302;2022-08-03T08:59:55;27.50;99.90
2100;DHT22;1055;48.854;9.302;2022-08-03T09:02:25;27.70;99.90
2100;DHT22;1055;48.854;9.302;2022-08-03T09:04:53;27.70;99.90
2100;DHT22;1055;48.854;9.302;2022-08-03T09:07:19;27.80;99.90
2100;DHT22;1055;48.854;9.302;2022-08-03T09:09:45;27.90;99.30
2100;DHT22;1055;48.854;9.302;2022-08-03T09:12:10;27.80;99.10
2100;DHT22;1055;48.854;9.302;2022-08-03T09:14:36;28.00;97.90
2100;DHT22;1055;48.854;9.302;2022-08-03T09:17:03;28.20;98.00
2100;DHT22;1055;48.854;9.302;2022-08-03T09:19:33;28.30;97.00
2100;DHT22;1055;48.854;9.302;2022-08-03T09:22:17;28.30;95.00
2100;DHT22;1055;48.854;9.302;2022-08-03T09:25:00;28.40;95.10
2100;DHT22;1055;48.854;9.302;2022-08-03T09:27:26;28.50;93.80
2100;DHT22;1055;48.854;9.302;2022-08-03T09:29:53;28.60;93.50
2100;DHT22;1055;48.854;9.302;2022-08-03T09:32:23;28.80;91.70
2100;DHT22;1055;48.854;9.302;2022-08-03T09:34:51;28.80;91.80
2100;DHT22;1055;48.854;9.302;2022-08-03T09:37:19;29.00;91.50
2100;DHT22;1055;48.854;9.302;2022-08-03T09:39:46;29.10;90.60
2100;DHT22;1055;48.854;9.302;2022-08-03T09:42:18;29.10;88.40
2100;DHT22;1055;48.854;9.302;2022-08-03T09:44:48;29.10;88.70
2100;DHT22;1055;48.854;9.302;2022-08-03T09:47:26;29.30;90.00
2100;DHT22;1055;48.854;9.302;2022-08-03T09:49:59;29.30;88.20
2100;DHT22;1055;48.854;9.302;2022-08-03T09:52:34;29.50;88.70
2100;DHT22;1055;48.854;9.302;2022-08-03T09:55:02;29.60;86.30
2100;DHT22;1055;48.854;9.302;2022-08-03T09:57:32;29.50;84.40
2100;DHT22;1055;48.854;9.302;2022-08-03T10:00:08;29.60;80.00
2100;DHT22;1055;48.854;9.302;2022-08-03T10:02:38;29.70;80.50
2100;DHT22;1055;48.854;9.302;2022-08-03T10:05:05;29.80;79.90
2100;DHT22;1055;48.854;9.302;2022-08-03T10:07:43;29.90;79.40
2100;DHT22;1055;48.854;9.302;2022-08-03T10:10:09;29.90;80.10
2100;DHT22;1055;48.854;9.302;2022-08-03T10:12:36;30.00;79.10
2100;DHT22;1055;48.854;9.302;2022-08-03T10:15:02;30.00;78.80
2100;DHT22;1055;48.854;9.302;2022-08-03T10:17:28;30.20;77.80
2100;DHT22;1055;48.854;9.302;2022-08-03T10:19:53;30.30;76.80
2100;DHT22;1055;48.854;9.302;2022-08-03T10:22:21;30.10;74.60
2100;DHT22;1055;48.854;9.302;2022-08-03T10:25:05;30.10;74.80
2100;DHT22;1055;48.854;9.302;2022-08-03T10:27:36;30.00;72.80
2100;DHT22;1055;48.854;9.302;2022-08-03T10:30:05;30.20;73.80
2100;DHT22;1055;48.854;9.302;2022-08-03T10:32:40;30.30;72.40
2100;DHT22;1055;48.854;9.302;2022-08-03T10:35:15;30.50;72.00
2100;DHT22;1055;48.854;9.302;2022-08-03T10:40:14;30.60;70.20
2100;DHT22;1055;48.854;9.302;2022-08-03T10:42:42;30.50;70.50
2100;DHT22;1055;48.854;9.302;2022-08-03T10:45:18;30.60;71.30
2100;DHT22;1055;48.854;9.302;2022-08-03T10:47:46;30.80;72.40
2100;DHT22;1055;48.854;9.302;2022-08-03T10:50:12;30.90;71.90
2100;DHT22;1055;48.854;9.302;2022-08-03T10:52:54;31.00;70.00
2100;DHT22;1055;48.854;9.302;2022-08-03T10:55:33;31.20;69.30
2100;DHT22;1055;48.854;9.302;2022-08-03T11:01:08;31.10;68.50
2100;DHT22;1055;48.854;9.302;2022-08-03T11:06:24;31.30;68.30
2100;DHT22;1055;48.854;9.302;2022-08-03T11:11:36;31.30;68.40
2100;DHT22;1055;48.854;9.302;2022-08-03T11:14:10;31.40;66.50
2100;DHT22;1055;48.854;9.302;2022-08-03T11:19:04;31.50;67.50
2100;DHT22;1055;48.854;9.302;2022-08-03T11:35:25;31.60;64.40
2100;DHT22;1055;48.854;9.302;2022-08-03T11:48:34;32.00;64.00
2100;DHT22;1055;48.854;9.302;2022-08-03T11:51:05;32.00;61.40
2100;DHT22;1055;48.854;9.302;2022-08-03T11:53:31;32.10;61.70
2100;DHT22;1055;48.854;9.302;2022-08-03T11:55:59;32.00;60.50
2100;DHT22;1055;48.854;9.302;2022-08-03T11:58:25;32.30;62.10
2100;DHT22;1055;48.854;9.302;2022-08-03T12:00:51;32.60;59.60
2100;DHT22;1055;48.854;9.302;2022-08-03T12:03:19;32.70;59.10
2100;DHT22;1055;48.854;9.302;2022-08-03T12:05:47;32.50;59.90
2100;DHT22;1055;48.854;9.302;2022-08-03T12:08:15;32.70;59.80
2100;DHT22;1055;48.854;9.302;2022-08-03T12:10:47;32.60;59.00
2100;DHT22;1055;48.854;9.302;2022-08-03T12:13:13;32.70;59.10
2100;DHT22;1055;48.854;9.302;2022-08-03T12:15:40;32.60;59.40
2100;DHT22;1055;48.854;9.302;2022-08-03T12:18:15;32.60;60.00
2100;DHT22;1055;48.854;9.302;2022-08-03T12:20:43;32.60;60.30
2100;DHT22;1055;48.854;9.302;2022-08-03T12:23:09;33.00;59.90
2100;DHT22;1055;48.854;9.302;2022-08-03T12:25:37;33.20;59.70
2100;DHT22;1055;48.854;9.302;2022-08-03T12:30:37;33.20;56.80
2100;DHT22;1055;48.854;9.302;2022-08-03T12:35:49;33.30;57.00
2100;DHT22;1055;48.854;9.302;2022-08-03T12:38:20;33.30;57.30
2100;DHT22;1055;48.854;9.302;2022-08-03T12:40:55;33.20;57.50
2100;DHT22;1055;48.854;9.302;2022-08-03T12:43:21;32.90;56.30
2100;DHT22;1055;48.854;9.302;2022-08-03T12:45:47;33.10;57.30
2100;DHT22;1055;48.854;9.302;2022-08-03T12:48:13;33.70;57.00
2100;DHT22;1055;48.854;9.302;2022-08-03T12:50:38;34.10;56.10
2100;DHT22;1055;48.854;9.302;2022-08-03T12:53:07;34.00;55.50
2100;DHT22;1055;48.854;9.302;2022-08-03T12:55:35;34.40;54.90
2100;DHT22;1055;48.854;9.302;2022-08-03T12:58:03;34.60;55.70
2100;DHT22;1055;48.854;9.302;2022-08-03T13:00:29;34.70;55.00
2100;DHT22;1055;48.854;9.302;2022-08-03T13:03:05;35.00;54.00
2100;DHT22;1055;48.854;9.302;2022-08-03T13:05:42;35.20;54.10
2100;DHT22;1055;48.854;9.302;2022-08-03T13:08:19;35.30;53.00
2100;DHT22;1055;48.854;9.302;2022-08-03T13:10:45;35.20;53.70
2100;DHT22;1055;48.854;9.302;2022-08-03T13:13:11;35.80;54.60
2100;DHT22;1055;48.854;9.302;2022-08-03T13:15:36;35.70;54.10
2100;DHT22;1055;48.854;9.302;2022-08-03T13:18:02;35.80;52.40
2100;DHT22;1055;48.854;9.302;2022-08-03T13:20:29;35.80;52.30
2100;DHT22;1055;48.854;9.302;2022-08-03T13:22:54;36.20;52.10
2100;DHT22;1055;48.854;9.302;2022-08-03T13:25:21;35.50;52.00
2100;DHT22;1055;48.854;9.302;2022-08-03T13:27:47;35.00;51.40
2100;DHT22;1055;48.854;9.302;2022-08-03T13:30:13;35.30;51.50
2100;DHT22;1055;48.854;9.302;2022-08-03T13:32:39;35.00;51.80
2100;DHT22;1055;48.854;9.302;2022-08-03T13:35:05;35.10;53.30
2100;DHT22;1055;48.854;9.302;2022-08-03T13:37:33;34.80;51.70
2100;DHT22;1055;48.854;9.302;2022-08-03T13:40:00;34.30;51.60
2100;DHT22;1055;48.854;9.302;2022-08-03T13:42:30;34.40;51.80
2100;DHT22;1055;48.854;9.302;2022-08-03T13:44:57;35.00;52.60
2100;DHT22;1055;48.854;9.302;2022-08-03T13:47:23;34.60;52.00
2100;DHT22;1055;48.854;9.302;2022-08-03T13:49:49;35.20;52.60
2100;DHT22;1055;48.854;9.302;2022-08-03T13:52:18;35.40;52.00
2100;DHT22;1055;48.854;9.302;2022-08-03T13:54:44;36.20;51.30
2100;DHT22;1055;48.854;9.302;2022-08-03T13:57:09;36.10;50.50
2100;DHT22;1055;48.854;9.302;2022-08-03T13:59:36;36.40;50.80
2100;DHT22;1055;48.854;9.302;2022-08-03T14:02:02;36.60;49.20
2100;DHT22;1055;48.854;9.302;2022-08-03T14:04:28;36.50;49.60
2100;DHT22;1055;48.854;9.302;2022-08-03T14:06:54;36.80;49.00
2100;DHT22;1055;48.854;9.302;2022-08-03T14:09:19;36.30;48.50
2100;DHT22;1055;48.854;9.302;2022-08-03T14:11:45;37.00;47.30
2100;DHT22;1055;48.854;9.302;2022-08-03T14:14:11;37.00;47.50
2100;DHT22;1055;48.854;9.302;2022-08-03T14:16:37;36.80;46.50
2100;DHT22;1055;48.854;9.302;2022-08-03T14:19:04;36.50;47.70
2100;DHT22;1055;48.854;9.302;2022-08-03T14:21:32;36.90;46.50
2100;DHT22;1055;48.854;9.302;2022-08-03T14:23:58;37.60;46.30
2100;DHT22;1055;48.854;9.302;2022-08-03T14:26:24;38.00;46.50
2100;DHT22;1055;48.854;9.302;2022-08-03T14:28:49;37.30;46.10
2100;DHT22;1055;48.854;9.302;2022-08-03T14:31:15;37.60;47.00
2100;DHT22;1055;48.854;9.302;2022-08-03T14:33:41;37.40;46.30
2100;DHT22;1055;48.854;9.302;2022-08-03T14:36:06;37.90;45.00
2100;DHT22;1055;48.854;9.302;2022-08-03T14:38:32;38.10;45.90
2100;DHT22;1055;48.854;9.302;2022-08-03T14:40:58;38.20;45.80
2100;DHT22;1055;48.854;9.302;2022-08-03T14:43:24;38.50;45.00
2100;DHT22;1055;48.854;9.302;2022-08-03T14:45:50;38.30;45.10
2100;DHT22;1055;48.854;9.302;2022-08-03T14:48:18;38.90;45.80
2100;DHT22;1055;48.854;9.302;2022-08-03T14:50:44;38.90;45.60
2100;DHT22;1055;48.854;9.302;2022-08-03T14:53:09;38.90;45.10
2100;DHT22;1055;48.854;9.302;2022-08-03T14:55:35;39.20;44.20
2100;DHT22;1055;48.854;9.302;2022-08-03T14:58:01;39.00;45.10
2100;DHT22;1055;48.854;9.302;2022-08-03T15:00:33;38.60;43.50
2100;DHT22;1055;48.854;9.302;2022-08-03T15:02:59;39.10;44.30
2100;DHT22;1055;48.854;9.302;2022-08-03T15:05:25;39.30;42.60
2100;DHT22;1055;48.854;9.302;2022-08-03T15:07:50;39.50;43.00
2100;DHT22;1055;48.854;9.302;2022-08-03T15:10:16;40.00;41.70
2100;DHT22;1055;48.854;9.302;2022-08-03T15:12:43;37.90;39.90
2100;DHT22;1055;48.854;9.302;2022-08-03T15:15:08;38.10;42.70
2100;DHT22;1055;48.854;9.302;2022-08-03T15:17:34;38.70;42.50
2100;DHT22;1055;48.854;9.302;2022-08-03T15:20:00;38.70;42.80
2100;DHT22;1055;48.854;9.302;2022-08-03T15:22:25;38.00;42.50
2100;DHT22;1055;48.854;9.302;2022-08-03T15:24:51;38.20;42.90
2100;DHT22;1055;48.854;9.302;2022-08-03T15:27:17;38.90;44.00
2100;DHT22;1055;48.854;9.302;2022-08-03T15:29:42;39.50;43.80
2100;DHT22;1055;48.854;9.302;2022-08-03T15:32:08;38.80;43.40
2100;DHT22;1055;48.854;9.302;2022-08-03T15:34:34;39.20;43.60
2100;DHT22;1055;48.854;9.302;2022-08-03T15:36:59;39.10;42.90
2100;DHT22;1055;48.854;9.302;2022-08-03T15:39:25;39.40;42.40
2100;DHT22;1055;48.854;9.302;2022-08-03T15:41:51;39.40;42.00
2100;DHT22;1055;48.854;9.302;2022-08-03T15:44:19;39.40;42.20
2100;DHT22;1055;48.854;9.302;2022-08-03T15:46:45;40.20;42.30
2100;DHT22;1055;48.854;9.302;2022-08-03T15:49:12;40.20;42.40
2100;DHT22;1055;48.854;9.302;2022-08-03T15:51:37;40.10;42.40
2100;DHT22;1055;48.854;9.302;2022-08-03T15:54:05;39.80;41.10
2100;DHT22;1055;48.854;9.302;2022-08-03T15:56:31;39.80;41.00
2100;DHT22;1055;48.854;9.302;2022-08-03T15:58:57;40.60;41.20
2100;DHT22;1055;48.854;9.302;2022-08-03T16:01:23;40.50;41.30
2100;DHT22;1055;48.854;9.302;2022-08-03T16:03:50;39.30;40.70
2100;DHT22;1055;48.854;9.302;2022-08-03T16:06:16;40.20;41.80
2100;DHT22;1055;48.854;9.302;2022-08-03T16:08:41;38.70;41.30
2100;DHT22;1055;48.854;9.302;2022-08-03T16:11:07;38.60;42.50
2100;DHT22;1055;48.854;9.302;2022-08-03T16:13:33;38.10;40.90
2100;DHT22;1055;48.854;9.302;2022-08-03T16:15:58;38.10;40.80
2100;DHT22;1055;48.854;9.302;2022-08-03T16:18:24;37.90;41.30
2100;DHT22;1055;48.854;9.302;2022-08-03T16:20:50;37.70;41.10
2100;DHT22;1055;48.854;9.302;2022-08-03T16:23:16;37.70;40.30
2100;DHT22;1055;48.854;9.302;2022-08-03T16:25:43;38.40;40.70
2100;DHT22;1055;48.854;9.302;2022-08-03T16:28:10;38.90;40.50
2100;DHT22;1055;48.854;9.302;2022-08-03T16:30:36;38.20;40.20
2100;DHT22;1055;48.854;9.302;2022-08-03T16:33:02;38.90;40.80
2100;DHT22;1055;48.854;9.302;2022-08-03T16:35:28;38.80;40.60
2100;DHT22;1055;48.854;9.302;2022-08-03T16:37:54;38.90;40.00
2100;DHT22;1055;48.854;9.302;2022-08-03T16:40:20;39.00;39.60
2100;DHT22;1055;48.854;9.302;2022-08-03T16:42:46;39.10;41.40
2100;DHT22;1055;48.854;9.302;2022-08-03T16:45:12;39.70;40.90
2100;DHT22;1055;48.854;9.302;2022-08-03T16:47:38;40.30;40.60
2100;DHT22;1055;48.854;9.302;2022-08-03T16:50:04;40.40;40.30
2100;DHT22;1055;48.854;9.302;2022-08-03T16:52:30;39.90;40.20
2100;DHT22;1055;48.854;9.302;2022-08-03T16:54:57;39.20;40.60
2100;DHT22;1055;48.854;9.302;2022-08-03T16:57:24;39.00;39.30
2100;DHT22;1055;48.854;9.302;2022-08-03T16:59:50;39.10;39.40
2100;DHT22;1055;48.854;9.302;2022-08-03T17:02:24;39.60;39.00